الصفحة الرئيسية
METAR-TAF:

METAR-TAF

مطار :

سانت مايكل, ألاسكا, الولايات المتحدة

دائرة عرض: 63-29-24N, خط طول: 162-06-37W, ارتفاع: 30 متر

مراقبة الطقس الحالي

تاريخ ووقت الإصدار 31 دقيقة قبل الساعة 01:56UTC
ريح 14 عقدة من الغرب
درجة الحرارة 12°درجة مئوية
الرطوبة 76%
ضغط 1013 hPa
الرؤية: 16.1 كم
سماء صافية

METAR: PAMK 180156Z AUTO 28014KT 10SM CLR 12/08 A2990 RMK AO2 SLP125 T01170078

زمن: 18:27 (02:27 UTC)


TAF: مفقودة

أرصاد الطقس والتوقعات من أكثر من 4000 مطار (تقارير الطقس للمطار METAR والتنبؤ بالطقس بالمطارTAF).

المحطات المتاحة هي النقط الصفراء والحمراء على الخريطة.

حرك المؤشر فوق النقطة لمعرفة اسم المحطة.

ثم انقر لمعرفة أرصاد وتوقعات الطقس.

لتغيير الخارطة: اضغط على الأزرار الخضراء مع رمز الصليب الأسود للتكبير. على الزر الأخضر مع شرطة للتصغير، أو على الأسهم الخضراء للخرائط المجاورة.


METAR-TAF: